Time;durP1;ratioP1;P1;durP2;ratioP2;P2;SDS_P1;SDS_P2;PMS_P1;PMS_P2;Temp;Humidity;BMP_temperature;BMP_pressure;BME280_temperature;BME280_humidity;BME280_pressure;Samples;Min_cycle;Max_cycle;Signal;HPM_P1;HPM_P2
2023/05/29 00:00:20;;;;;;;4.40;2.85;;;13.30;99.90;;;;;;4953624;28;20076;-71
2023/05/29 00:02:47;;;;;;;3.67;2.92;;;13.40;99.90;;;;;;4957652;28;20055;-71
2023/05/29 00:05:13;;;;;;;3.75;2.78;;;13.40;99.90;;;;;;4965594;28;20122;-71
2023/05/29 00:07:40;;;;;;;3.42;2.42;;;13.40;99.90;;;;;;4964049;28;20466;-71
2023/05/29 00:10:07;;;;;;;2.67;2.20;;;13.30;99.90;;;;;;4948026;28;20066;-72
2023/05/29 00:12:33;;;;;;;4.88;2.65;;;13.20;99.90;;;;;;4965920;28;20034;-71
2023/05/29 00:14:59;;;;;;;3.05;2.47;;;13.10;99.90;;;;;;4959072;28;21511;-71
2023/05/29 00:17:25;;;;;;;4.80;2.65;;;13.10;99.90;;;;;;4947233;28;20096;-71
2023/05/29 00:19:51;;;;;;;2.67;2.45;;;13.00;99.90;;;;;;4959367;28;20097;-71
2023/05/29 00:22:17;;;;;;;2.58;2.35;;;13.00;99.90;;;;;;4953614;28;20050;-66
2023/05/29 00:24:43;;;;;;;4.25;2.30;;;13.00;99.90;;;;;;4961206;28;20038;-65
2023/05/29 00:27:09;;;;;;;3.03;2.35;;;13.10;99.90;;;;;;4967147;28;20050;-66
2023/05/29 00:29:36;;;;;;;3.08;2.42;;;13.00;99.90;;;;;;4964135;28;20045;-65
2023/05/29 00:32:02;;;;;;;4.25;2.63;;;13.10;99.90;;;;;;4969213;28;20042;-65
2023/05/29 00:34:28;;;;;;;5.75;2.70;;;13.10;99.90;;;;;;4967388;28;20814;-65
2023/05/29 00:36:55;;;;;;;3.83;2.47;;;13.00;99.90;;;;;;4970148;28;20050;-65
2023/05/29 00:39:21;;;;;;;2.63;2.13;;;13.00;99.90;;;;;;4971564;28;20031;-65
2023/05/29 00:41:50;;;;;;;4.63;2.38;;;13.00;99.90;;;;;;4968613;28;20112;-66
2023/05/29 00:44:19;;;;;;;2.78;2.15;;;12.90;99.90;;;;;;4969464;28;20026;-65
2023/05/29 00:46:52;;;;;;;2.90;2.60;;;12.90;99.90;;;;;;4973105;28;20442;-65
2023/05/29 00:49:18;;;;;;;8.88;2.47;;;12.90;99.90;;;;;;4973301;28;20121;-66
2023/05/29 00:51:44;;;;;;;2.72;2.17;;;12.90;99.90;;;;;;4970122;28;20047;-65
2023/05/29 00:54:14;;;;;;;6.13;2.80;;;12.80;99.90;;;;;;4972095;28;20033;-65
2023/05/29 00:56:43;;;;;;;4.38;2.33;;;12.90;99.90;;;;;;4967111;28;20046;-66
2023/05/29 00:59:10;;;;;;;5.38;2.67;;;12.80;99.90;;;;;;4974298;28;20058;-66
2023/05/29 01:01:36;;;;;;;6.15;2.88;;;12.80;99.90;;;;;;4966338;28;22602;-65
2023/05/29 01:04:06;;;;;;;6.93;3.28;;;12.80;99.90;;;;;;4966208;28;20038;-66
2023/05/29 01:06:33;;;;;;;3.33;2.58;;;12.80;99.90;;;;;;4953099;28;20385;-66
2023/05/29 01:08:59;;;;;;;4.20;2.72;;;12.70;99.90;;;;;;4973594;28;20503;-66
2023/05/29 01:11:47;;;;;;;5.22;2.45;;;12.70;99.90;;;;;;4965003;28;20113;-66
2023/05/29 01:14:25;;;;;;;4.82;2.65;;;12.80;99.90;;;;;;4968824;28;20093;-66
2023/05/29 01:17:11;;;;;;;5.90;2.65;;;12.80;99.90;;;;;;4966206;28;20127;-66
2023/05/29 01:20:20;;;;;;;3.08;2.78;;;12.90;99.90;;;;;;4969411;28;20230;-70
2023/05/29 01:23:15;;;;;;;3.83;2.38;;;12.90;99.90;;;;;;4957800;28;20458;-70
2023/05/29 01:25:47;;;;;;;4.93;2.95;;;12.90;99.90;;;;;;4967213;28;20364;-70
2023/05/29 01:28:18;;;;;;;3.83;2.28;;;12.90;99.90;;;;;;4966053;28;20041;-70
2023/05/29 01:30:43;;;;;;;2.88;2.25;;;12.90;99.90;;;;;;4965615;28;20042;-70
2023/05/29 01:33:10;;;;;;;4.32;2.17;;;12.70;99.90;;;;;;4962738;28;20045;-70
2023/05/29 01:35:35;;;;;;;4.00;2.45;;;12.50;99.90;;;;;;4961068;28;20117;-70
2023/05/29 01:38:01;;;;;;;3.20;2.30;;;12.50;99.90;;;;;;4962890;28;20031;-70
2023/05/29 01:40:26;;;;;;;4.45;2.55;;;12.40;99.90;;;;;;4971919;28;20406;-70
2023/05/29 01:42:53;;;;;;;4.25;2.70;;;12.40;99.90;;;;;;4961602;28;20169;-70
2023/05/29 01:45:19;;;;;;;3.83;2.92;;;12.40;99.90;;;;;;4964299;28;20098;-70
2023/05/29 01:47:45;;;;;;;2.90;2.60;;;12.40;99.90;;;;;;4944719;28;20042;-70
2023/05/29 01:50:14;;;;;;;3.20;2.63;;;12.50;99.90;;;;;;4962590;28;20116;-70
2023/05/29 01:52:40;;;;;;;3.50;2.70;;;12.50;99.90;;;;;;4957172;28;20395;-69
2023/05/29 01:55:07;;;;;;;4.05;2.67;;;12.60;99.90;;;;;;4955801;28;20052;-68
2023/05/29 01:57:32;;;;;;;6.55;2.55;;;12.50;99.90;;;;;;4965203;28;20037;-69
2023/05/29 01:59:58;;;;;;;4.30;2.47;;;12.60;99.90;;;;;;4960786;28;20118;-69
2023/05/29 02:02:24;;;;;;;2.58;2.38;;;12.60;99.90;;;;;;4966336;28;20053;-69
2023/05/29 02:04:51;;;;;;;3.58;2.60;;;12.50;99.90;;;;;;4964379;28;20097;-69
2023/05/29 02:07:17;;;;;;;4.53;2.35;;;12.40;99.90;;;;;;4971631;28;20041;-69
2023/05/29 02:09:43;;;;;;;3.33;2.88;;;12.40;99.90;;;;;;4959295;28;20514;-69
2023/05/29 02:12:08;;;;;;;4.40;2.45;;;12.30;99.90;;;;;;4972461;28;20103;-70
2023/05/29 02:14:34;;;;;;;3.22;2.58;;;12.20;99.90;;;;;;4942134;28;20042;-65
2023/05/29 02:17:01;;;;;;;4.05;2.47;;;12.20;99.90;;;;;;4953372;28;22102;-66
2023/05/29 02:19:27;;;;;;;4.75;2.50;;;12.20;99.90;;;;;;4960083;28;20148;-65
2023/05/29 02:21:53;;;;;;;2.75;2.25;;;12.20;99.90;;;;;;4955106;28;21267;-65
2023/05/29 02:24:18;;;;;;;4.43;2.38;;;12.20;99.90;;;;;;4955945;28;20598;-66
2023/05/29 02:26:44;;;;;;;4.63;2.75;;;12.20;99.90;;;;;;4961829;28;20038;-65
2023/05/29 02:29:10;;;;;;;5.22;2.72;;;12.10;99.90;;;;;;4958360;28;20069;-65
2023/05/29 02:31:36;;;;;;;4.47;2.53;;;12.00;99.90;;;;;;4960623;28;20101;-67
2023/05/29 02:34:02;;;;;;;4.13;2.75;;;11.80;99.90;;;;;;4960394;28;20038;-68
2023/05/29 02:36:27;;;;;;;3.58;2.50;;;11.80;99.90;;;;;;4963020;28;20442;-65
2023/05/29 02:38:53;;;;;;;3.40;2.85;;;11.80;99.90;;;;;;4954647;28;20038;-66
2023/05/29 02:41:19;;;;;;;3.97;2.83;;;11.80;99.90;;;;;;4958993;28;20641;-66
2023/05/29 02:43:44;;;;;;;3.95;3.03;;;11.90;99.90;;;;;;4941876;28;20125;-67
2023/05/29 02:46:10;;;;;;;3.45;2.53;;;12.00;99.90;;;;;;4962669;28;20027;-68
2023/05/29 02:48:36;;;;;;;4.72;2.88;;;12.00;99.90;;;;;;4939652;28;20050;-67
2023/05/29 02:51:01;;;;;;;3.10;2.45;;;12.10;99.90;;;;;;4947951;28;20101;-66
2023/05/29 02:53:27;;;;;;;3.70;3.08;;;12.10;99.90;;;;;;4958710;28;20058;-66
2023/05/29 02:55:53;;;;;;;2.97;2.30;;;12.10;99.90;;;;;;4952496;28;20035;-68
2023/05/29 02:58:18;;;;;;;3.75;2.58;;;12.10;99.90;;;;;;4953887;28;20100;-68
2023/05/29 03:00:44;;;;;;;4.20;2.30;;;12.10;99.90;;;;;;4952380;28;20042;-68
2023/05/29 03:03:10;;;;;;;5.35;2.55;;;12.10;99.90;;;;;;4959548;28;20053;-70
2023/05/29 03:05:36;;;;;;;6.03;2.50;;;12.00;99.90;;;;;;4956276;28;20047;-70
2023/05/29 03:08:02;;;;;;;3.25;2.45;;;11.90;99.90;;;;;;4955223;28;20093;-69
2023/05/29 03:10:27;;;;;;;4.88;2.72;;;11.80;99.90;;;;;;4955244;28;20121;-70
2023/05/29 03:12:54;;;;;;;2.78;2.30;;;11.80;99.90;;;;;;4959701;28;20434;-70
2023/05/29 03:15:20;;;;;;;5.47;2.78;;;11.70;99.90;;;;;;4952645;28;20444;-66
2023/05/29 03:17:46;;;;;;;4.45;2.72;;;11.80;99.90;;;;;;4961857;28;20395;-66
2023/05/29 03:20:13;;;;;;;5.15;2.38;;;11.80;99.90;;;;;;4966737;28;20334;-66
2023/05/29 03:22:40;;;;;;;2.78;2.53;;;11.80;99.90;;;;;;4939547;28;20391;-66
2023/05/29 03:25:06;;;;;;;4.35;2.67;;;11.80;99.90;;;;;;4967568;28;20048;-66
2023/05/29 03:27:31;;;;;;;2.90;2.60;;;11.80;99.90;;;;;;4965436;28;20046;-66
2023/05/29 03:29:58;;;;;;;2.60;2.40;;;11.80;99.90;;;;;;4950923;28;20051;-66
2023/05/29 03:32:24;;;;;;;3.88;2.90;;;11.90;99.90;;;;;;4962358;28;20395;-66
2023/05/29 03:34:50;;;;;;;4.93;2.92;;;11.90;99.90;;;;;;4956671;28;20038;-66
2023/05/29 03:37:16;;;;;;;6.13;2.78;;;12.10;99.90;;;;;;4966519;28;20038;-66
2023/05/29 03:39:42;;;;;;;2.55;2.22;;;12.20;99.90;;;;;;4965689;28;20069;-66
2023/05/29 03:42:07;;;;;;;3.08;2.30;;;12.20;99.90;;;;;;4966555;28;20046;-66
2023/05/29 03:44:33;;;;;;;4.35;2.50;;;12.30;99.90;;;;;;4964354;28;20066;-66
2023/05/29 03:46:59;;;;;;;3.60;2.50;;;12.30;99.90;;;;;;4964568;28;20038;-66
2023/05/29 03:49:24;;;;;;;3.83;2.38;;;12.20;99.90;;;;;;4965287;28;20038;-66
2023/05/29 03:51:50;;;;;;;7.97;3.10;;;12.20;99.90;;;;;;4962718;28;20042;-66
2023/05/29 03:54:16;;;;;;;4.03;2.90;;;12.20;99.90;;;;;;4952774;28;20645;-65
2023/05/29 03:56:42;;;;;;;3.42;2.65;;;12.20;99.90;;;;;;4953151;28;20097;-66
2023/05/29 03:59:08;;;;;;;6.90;2.95;;;12.10;99.90;;;;;;4955979;28;22943;-65
2023/05/29 04:01:34;;;;;;;3.80;3.25;;;12.20;99.90;;;;;;4960341;28;20755;-66
2023/05/29 04:04:00;;;;;;;4.65;2.80;;;12.20;99.90;;;;;;4951567;28;20035;-65
2023/05/29 04:06:26;;;;;;;4.45;2.85;;;12.30;99.90;;;;;;4952493;28;20533;-65
2023/05/29 04:08:52;;;;;;;4.18;2.72;;;12.40;99.90;;;;;;4966243;28;20091;-70
2023/05/29 04:11:22;;;;;;;4.93;3.70;;;12.40;99.90;;;;;;4962578;28;20037;-66
2023/05/29 04:13:48;;;;;;;4.32;3.20;;;12.50;99.90;;;;;;4955118;28;20045;-65
2023/05/29 04:16:15;;;;;;;8.25;3.10;;;12.50;99.90;;;;;;4965804;28;20271;-66
2023/05/29 04:18:42;;;;;;;6.32;3.30;;;12.70;99.90;;;;;;4963282;28;20056;-66
2023/05/29 04:21:07;;;;;;;6.82;3.45;;;12.80;99.90;;;;;;4968797;28;20045;-66
2023/05/29 04:23:33;;;;;;;4.78;3.17;;;12.90;99.90;;;;;;4970318;28;20047;-66
2023/05/29 04:26:01;;;;;;;6.07;3.17;;;13.00;99.90;;;;;;4962042;28;20026;-66
2023/05/29 04:28:27;;;;;;;25.00;4.50;;;13.10;99.90;;;;;;4972444;28;20157;-66
2023/05/29 04:30:55;;;;;;;8.55;3.80;;;13.20;99.90;;;;;;4963388;28;20031;-71
2023/05/29 04:33:23;;;;;;;6.78;3.53;;;13.20;99.90;;;;;;4954876;28;20066;-71
2023/05/29 04:35:49;;;;;;;4.85;3.30;;;13.30;99.90;;;;;;4967455;28;26335;-72
2023/05/29 04:38:15;;;;;;;4.60;3.38;;;13.40;99.90;;;;;;4948221;28;20042;-72
2023/05/29 04:40:43;;;;;;;9.98;4.05;;;13.50;99.90;;;;;;4967432;28;20084;-72
2023/05/29 04:43:09;;;;;;;5.40;3.72;;;13.60;99.90;;;;;;4969799;28;20125;-71
2023/05/29 04:45:36;;;;;;;5.43;3.42;;;13.70;99.90;;;;;;4945600;28;20050;-71
2023/05/29 04:48:03;;;;;;;5.25;3.47;;;13.80;99.90;;;;;;4950176;28;20486;-72
2023/05/29 04:50:30;;;;;;;6.60;3.58;;;14.00;99.90;;;;;;4967694;28;20541;-66
2023/05/29 04:52:57;;;;;;;5.47;3.80;;;14.00;99.90;;;;;;4959632;28;20050;-66
2023/05/29 04:55:23;;;;;;;4.60;3.88;;;14.30;99.90;;;;;;4961805;28;20045;-66
2023/05/29 04:57:48;;;;;;;3.75;3.35;;;14.40;99.90;;;;;;4960209;28;20046;-66
2023/05/29 05:00:14;;;;;;;4.70;3.10;;;14.60;99.90;;;;;;4960869;28;20054;-67
2023/05/29 05:02:43;;;;;;;5.60;3.67;;;14.70;99.90;;;;;;4963925;28;20495;-66
2023/05/29 05:05:09;;;;;;;20.52;3.78;;;14.80;99.90;;;;;;4962747;28;20132;-67
2023/05/29 05:07:35;;;;;;;6.40;3.88;;;15.00;99.90;;;;;;4954216;28;20509;-66
2023/05/29 05:10:02;;;;;;;8.73;3.50;;;15.10;99.90;;;;;;4959300;28;20133;-66
2023/05/29 05:12:28;;;;;;;4.70;3.55;;;15.30;99.90;;;;;;4958956;28;20160;-66
2023/05/29 05:14:54;;;;;;;13.98;3.83;;;15.40;99.90;;;;;;4962537;28;20125;-66
2023/05/29 05:17:20;;;;;;;4.75;4.05;;;15.50;99.90;;;;;;4958986;28;20030;-66
2023/05/29 05:19:48;;;;;;;9.48;3.72;;;15.60;99.90;;;;;;4962949;28;20317;-66
2023/05/29 05:22:14;;;;;;;6.32;3.30;;;15.70;99.90;;;;;;4960338;28;20050;-66
2023/05/29 05:24:40;;;;;;;4.80;3.60;;;15.90;99.90;;;;;;4963653;28;20450;-66
2023/05/29 05:27:06;;;;;;;9.48;3.42;;;16.00;99.90;;;;;;4966368;28;20062;-71
2023/05/29 05:29:32;;;;;;;6.28;4.00;;;16.10;99.90;;;;;;4958561;28;20133;-70
2023/05/29 05:31:58;;;;;;;5.22;3.20;;;16.20;99.90;;;;;;4955368;28;20046;-71
2023/05/29 05:34:23;;;;;;;3.95;3.42;;;16.30;99.90;;;;;;4961885;28;20030;-71
2023/05/29 05:36:49;;;;;;;7.43;3.58;;;16.50;99.90;;;;;;4972502;28;20588;-71
2023/05/29 05:39:15;;;;;;;4.68;3.25;;;16.60;99.90;;;;;;4972254;28;20026;-72
2023/05/29 05:41:41;;;;;;;15.13;3.63;;;16.80;99.90;;;;;;4951596;28;20563;-71
2023/05/29 05:44:07;;;;;;;5.45;3.35;;;17.00;99.90;;;;;;4967163;28;20170;-71
2023/05/29 05:46:33;;;;;;;3.78;2.90;;;17.10;99.90;;;;;;4970138;28;20515;-71
2023/05/29 05:49:00;;;;;;;3.42;2.80;;;17.20;99.90;;;;;;4968135;28;20037;-71
2023/05/29 05:51:26;;;;;;;10.75;3.67;;;17.30;99.90;;;;;;4968430;28;20034;-71
2023/05/29 05:53:52;;;;;;;5.30;3.38;;;17.40;99.90;;;;;;4959807;28;20609;-71
2023/05/29 05:56:18;;;;;;;6.55;2.88;;;17.60;99.90;;;;;;4965567;28;20068;-71
2023/05/29 05:58:44;;;;;;;5.28;2.85;;;17.70;99.90;;;;;;4966938;28;20460;-71
2023/05/29 06:01:10;;;;;;;5.15;2.95;;;17.90;99.90;;;;;;4964339;28;20667;-71
2023/05/29 06:03:37;;;;;;;5.25;2.53;;;18.00;99.90;;;;;;4964226;28;20049;-71
2023/05/29 06:06:03;;;;;;;4.47;2.78;;;18.10;99.90;;;;;;4971359;28;20945;-66
2023/05/29 06:08:30;;;;;;;4.57;2.50;;;18.30;99.90;;;;;;4966867;28;20328;-66
2023/05/29 06:10:56;;;;;;;2.88;2.38;;;18.40;99.90;;;;;;4961887;28;20856;-66
2023/05/29 06:13:22;;;;;;;3.83;2.50;;;18.50;99.90;;;;;;4958894;28;20036;-66
2023/05/29 06:15:47;;;;;;;5.72;2.80;;;18.60;99.90;;;;;;4966558;28;20034;-66
2023/05/29 06:18:13;;;;;;;3.97;2.78;;;18.70;99.90;;;;;;4964264;28;20065;-66
2023/05/29 06:20:38;;;;;;;3.33;2.65;;;18.90;99.90;;;;;;4961890;28;20071;-67
2023/05/29 06:23:04;;;;;;;4.50;2.10;;;18.90;99.90;;;;;;4952431;28;20042;-66
2023/05/29 06:25:33;;;;;;;3.85;2.40;;;19.00;99.90;;;;;;4955389;28;20410;-71
2023/05/29 06:28:02;;;;;;;6.90;2.92;;;19.00;99.90;;;;;;4956621;28;20066;-71
2023/05/29 06:30:28;;;;;;;5.53;2.70;;;19.20;99.90;;;;;;4957407;28;20130;-75
2023/05/29 06:32:54;;;;;;;2.80;2.42;;;19.20;99.90;;;;;;4957548;28;21333;-71
2023/05/29 06:35:20;;;;;;;3.42;2.25;;;19.40;99.90;;;;;;4962606;28;20036;-70
2023/05/29 06:37:46;;;;;;;3.10;2.60;;;19.50;99.90;;;;;;4950182;28;20072;-70
2023/05/29 06:40:18;;;;;;;5.88;3.28;;;19.50;99.90;;;;;;4942699;28;20488;-69
2023/05/29 06:42:44;;;;;;;4.20;3.08;;;19.60;99.90;;;;;;4942745;28;20511;-70
2023/05/29 06:45:13;;;;;;;4.05;2.50;;;19.60;99.90;;;;;;4936515;28;22003;-66
2023/05/29 06:47:40;;;;;;;2.42;2.22;;;19.80;99.90;;;;;;4953035;28;20117;-66
2023/05/29 06:50:06;;;;;;;27.92;4.93;;;19.90;99.90;;;;;;4933128;28;20137;-66
2023/05/29 06:52:32;;;;;;;13.82;3.78;;;20.00;99.90;;;;;;4949104;28;20049;-66
2023/05/29 06:54:58;;;;;;;13.40;4.20;;;20.10;99.90;;;;;;4953282;28;20043;-66
2023/05/29 06:57:24;;;;;;;8.05;2.70;;;20.30;99.90;;;;;;4956635;28;20100;-66
2023/05/29 06:59:50;;;;;;;4.07;2.38;;;20.40;99.90;;;;;;4946724;28;20490;-65
2023/05/29 07:02:15;;;;;;;4.00;2.45;;;20.50;99.90;;;;;;4954148;28;20038;-65
2023/05/29 07:04:41;;;;;;;5.60;3.55;;;20.70;99.90;;;;;;4961729;28;20038;-65
2023/05/29 07:07:06;;;;;;;3.25;2.53;;;20.90;99.90;;;;;;4964615;28;20526;-65
2023/05/29 07:09:32;;;;;;;4.18;2.42;;;21.00;99.90;;;;;;4961142;28;20030;-65
2023/05/29 07:11:58;;;;;;;2.58;2.25;;;21.20;99.90;;;;;;4961105;28;20034;-66
2023/05/29 07:14:23;;;;;;;3.63;2.60;;;21.40;99.90;;;;;;4958040;28;20043;-65
2023/05/29 07:16:49;;;;;;;4.20;2.50;;;21.50;99.90;;;;;;4959869;28;20042;-66
2023/05/29 07:19:16;;;;;;;3.83;2.63;;;21.60;99.90;;;;;;4947114;28;20054;-66
2023/05/29 07:21:41;;;;;;;3.75;2.42;;;21.60;99.90;;;;;;4938648;28;20605;-65
2023/05/29 07:24:07;;;;;;;3.97;2.53;;;21.70;99.90;;;;;;4945207;28;20046;-65
2023/05/29 07:26:33;;;;;;;7.70;3.10;;;21.70;99.90;;;;;;4954282;28;20080;-65
2023/05/29 07:28:59;;;;;;;7.38;2.90;;;21.60;99.90;;;;;;4962162;28;20033;-65
2023/05/29 07:31:29;;;;;;;3.65;2.47;;;21.60;99.90;;;;;;4955821;28;20046;-68
2023/05/29 07:33:55;;;;;;;6.45;2.92;;;21.50;99.90;;;;;;4944484;28;20047;-69
2023/05/29 07:36:21;;;;;;;7.32;2.80;;;21.40;99.90;;;;;;4966131;28;20052;-69
2023/05/29 07:38:47;;;;;;;4.80;3.08;;;21.30;99.90;;;;;;4951308;28;20030;-69
2023/05/29 07:41:15;;;;;;;4.75;3.00;;;21.30;99.90;;;;;;4945664;28;20602;-63
2023/05/29 07:43:41;;;;;;;5.97;2.88;;;21.40;99.90;;;;;;4958103;28;20519;-62
2023/05/29 07:46:06;;;;;;;8.95;2.95;;;21.30;99.90;;;;;;4954359;28;20042;-70
2023/05/29 07:48:32;;;;;;;6.45;2.90;;;21.40;99.90;;;;;;4954012;28;20062;-71
2023/05/29 07:50:58;;;;;;;3.58;2.90;;;21.50;99.90;;;;;;4952777;28;20834;-78
2023/05/29 07:53:24;;;;;;;4.10;2.55;;;21.50;99.90;;;;;;4949422;28;20043;-73
2023/05/29 07:55:49;;;;;;;5.43;3.00;;;21.60;99.90;;;;;;4960003;28;20077;-72
2023/05/29 07:58:16;;;;;;;4.90;2.83;;;21.70;99.90;;;;;;4963715;28;20035;-66
2023/05/29 08:00:44;;;;;;;3.75;2.78;;;21.80;99.90;;;;;;4966186;28;20055;-67
2023/05/29 08:03:10;;;;;;;4.00;2.55;;;21.80;99.90;;;;;;4968469;28;20064;-67
2023/05/29 08:05:35;;;;;;;5.07;3.03;;;21.80;99.90;;;;;;4967268;28;20507;-67
2023/05/29 08:08:01;;;;;;;3.92;2.60;;;21.80;99.90;;;;;;4975852;28;20507;-67
2023/05/29 08:10:26;;;;;;;5.10;3.00;;;21.80;99.90;;;;;;4969017;28;20030;-67
2023/05/29 08:12:52;;;;;;;2.72;2.42;;;21.80;99.90;;;;;;4969953;28;20044;-67
2023/05/29 08:15:19;;;;;;;6.45;2.53;;;22.00;99.90;;;;;;4965928;28;20034;-67
2023/05/29 08:17:45;;;;;;;7.18;3.63;;;22.00;99.90;;;;;;4973516;28;20125;-67
2023/05/29 08:20:11;;;;;;;4.13;2.65;;;22.10;99.90;;;;;;4966243;28;20128;-73
2023/05/29 08:22:36;;;;;;;3.58;2.78;;;22.20;99.90;;;;;;4969376;28;20133;-74
2023/05/29 08:25:02;;;;;;;7.45;2.67;;;22.30;99.90;;;;;;4975307;28;20041;-73
2023/05/29 08:27:28;;;;;;;8.57;3.20;;;22.40;99.90;;;;;;4974803;28;20050;-73
2023/05/29 08:29:54;;;;;;;5.60;2.97;;;22.50;99.90;;;;;;4975425;28;20176;-73
2023/05/29 08:32:21;;;;;;;6.22;2.90;;;22.60;99.90;;;;;;4955866;28;20137;-71
2023/05/29 08:34:46;;;;;;;2.90;2.45;;;22.60;99.90;;;;;;4962448;28;20042;-72
2023/05/29 08:37:12;;;;;;;5.93;2.80;;;22.80;99.90;;;;;;4972354;28;20062;-72
2023/05/29 08:39:38;;;;;;;6.68;3.15;;;23.00;99.90;;;;;;4964622;28;20584;-72
2023/05/29 08:42:26;;;;;;;4.00;3.03;;;23.20;99.90;;;;;;4968108;28;20092;-72
2023/05/29 08:44:57;;;;;;;4.53;2.72;;;23.50;99.90;;;;;;4967427;28;20907;-72
2023/05/29 08:47:27;;;;;;;4.47;3.05;;;23.60;99.90;;;;;;4973472;28;20034;-72
2023/05/29 08:49:53;;;;;;;4.57;2.78;;;23.70;99.90;;;;;;4968943;28;20049;-72
2023/05/29 08:52:21;;;;;;;6.75;2.90;;;23.80;99.90;;;;;;4972751;28;20035;-73
2023/05/29 08:54:47;;;;;;;3.70;2.47;;;23.90;99.90;;;;;;4952813;28;20030;-72
2023/05/29 08:57:13;;;;;;;8.63;2.70;;;24.10;99.90;;;;;;4958338;28;20112;-69
2023/05/29 08:59:44;;;;;;;6.60;2.42;;;24.30;99.90;;;;;;4960834;28;20133;-69
2023/05/29 09:02:14;;;;;;;11.13;3.00;;;24.40;99.90;;;;;;4966832;28;20042;-69
2023/05/29 09:04:45;;;;;;;4.32;2.78;;;24.50;99.90;;;;;;4970798;28;20042;-68
2023/05/29 09:07:12;;;;;;;4.55;3.10;;;24.60;99.90;;;;;;4972383;28;20031;-69
2023/05/29 09:09:38;;;;;;;4.10;2.65;;;24.60;99.90;;;;;;4967339;28;20034;-69
2023/05/29 09:12:04;;;;;;;3.13;2.67;;;24.60;99.90;;;;;;4964985;28;20047;-69
2023/05/29 09:14:39;;;;;;;5.47;2.95;;;24.60;99.40;;;;;;4970227;28;20061;-66
2023/05/29 09:17:06;;;;;;;4.57;2.55;;;24.50;99.10;;;;;;4963207;28;20407;-70
2023/05/29 09:19:40;;;;;;;6.25;3.13;;;24.30;98.50;;;;;;4967721;28;20058;-70
2023/05/29 09:22:13;;;;;;;4.93;2.83;;;24.10;99.90;;;;;;4973783;28;20064;-70
2023/05/29 09:24:39;;;;;;;6.88;3.00;;;23.90;99.60;;;;;;4970696;28;20026;-70
2023/05/29 09:27:07;;;;;;;4.40;2.80;;;23.80;99.90;;;;;;4968012;28;20038;-64
2023/05/29 09:29:43;;;;;;;10.90;2.72;;;23.90;99.90;;;;;;4965360;28;20641;-65
2023/05/29 09:32:12;;;;;;;3.45;2.90;;;23.90;99.90;;;;;;4967302;28;20034;-65
2023/05/29 09:34:39;;;;;;;4.32;2.88;;;23.90;99.90;;;;;;4964293;28;20436;-67
2023/05/29 09:37:08;;;;;;;4.95;3.15;;;23.90;99.90;;;;;;4969238;28;20066;-68
2023/05/29 09:39:48;;;;;;;4.65;2.90;;;24.00;99.90;;;;;;4969345;28;20035;-67
2023/05/29 09:42:17;;;;;;;8.77;3.45;;;24.10;99.90;;;;;;4956275;28;20050;-69
2023/05/29 09:44:48;;;;;;;8.00;3.33;;;24.10;99.70;;;;;;4972373;28;20026;-68
2023/05/29 09:47:16;;;;;;;8.80;2.90;;;24.00;99.90;;;;;;4967030;28;20124;-65
2023/05/29 09:49:43;;;;;;;5.00;2.70;;;24.10;99.80;;;;;;4966026;28;20400;-65
2023/05/29 09:52:15;;;;;;;5.53;2.88;;;24.10;99.10;;;;;;4971133;28;20104;-65
2023/05/29 09:54:46;;;;;;;;;;;24.20;99.90;;;;;;4982014;28;20070;-72
2023/05/29 09:57:17;;;;;;;3.80;2.77;;;24.20;99.80;;;;;;4974237;28;19917;-72
2023/05/29 09:59:45;;;;;;;7.55;2.97;;;24.20;98.80;;;;;;4982835;28;20085;-71
2023/05/29 10:02:13;;;;;;;4.43;3.00;;;24.30;98.70;;;;;;4970000;28;20734;-72
2023/05/29 10:04:40;;;;;;;3.78;2.88;;;24.30;98.20;;;;;;4979601;28;20061;-72
2023/05/29 10:07:12;;;;;;;4.65;3.00;;;24.30;98.20;;;;;;4985711;28;20053;-71
2023/05/29 10:09:43;;;;;;;5.88;2.90;;;24.30;99.40;;;;;;4986950;28;20212;-72
2023/05/29 10:12:11;;;;;;;3.40;2.72;;;24.40;97.70;;;;;;4982374;28;20258;-72
2023/05/29 10:14:38;;;;;;;3.45;2.67;;;24.40;96.40;;;;;;4988629;28;20038;-73
2023/05/29 10:17:08;;;;;;;3.88;2.97;;;24.40;94.20;;;;;;4988851;28;20247;-74
2023/05/29 10:19:38;;;;;;;4.30;2.60;;;24.30;95.10;;;;;;4982902;28;20054;-74
2023/05/29 10:22:05;;;;;;;5.53;2.92;;;24.40;92.80;;;;;;4986671;28;20038;-73
2023/05/29 10:24:32;;;;;;;5.20;2.72;;;24.30;95.30;;;;;;4984590;28;20111;-74
2023/05/29 10:26:58;;;;;;;2.70;2.50;;;24.40;94.30;;;;;;4985202;28;20070;-73
2023/05/29 10:29:48;;;;;;;4.35;2.70;;;24.30;94.10;;;;;;4983932;28;20062;-73
2023/05/29 10:32:43;;;;;;;5.45;2.70;;;24.40;95.20;;;;;;4978988;28;20071;-65
2023/05/29 10:35:12;;;;;;;7.32;3.08;;;24.40;97.20;;;;;;4962941;28;20037;-65
2023/05/29 10:38:02;;;;;;;5.43;2.95;;;24.50;94.80;;;;;;4963524;28;20018;-70
2023/05/29 10:40:28;;;;;;;3.53;2.58;;;24.50;96.00;;;;;;4963958;28;20085;-69
2023/05/29 10:42:58;;;;;;;5.30;2.85;;;24.50;94.30;;;;;;4970800;28;20050;-70
2023/05/29 10:45:30;;;;;;;5.15;2.85;;;24.50;93.10;;;;;;4945658;28;20153;-70
2023/05/29 10:47:56;;;;;;;;;;;24.40;95.30;;;;;;4972262;28;20104;-69
2023/05/29 10:50:41;;;;;;;3.88;2.40;;;24.50;94.20;;;;;;4946435;28;19936;-69
2023/05/29 10:53:14;;;;;;;3.83;3.30;;;24.60;93.60;;;;;;4965312;28;20034;-68
2023/05/29 10:55:41;;;;;;;4.30;3.08;;;24.60;91.70;;;;;;4965005;28;20038;-68
2023/05/29 10:58:18;;;;;;;8.98;3.08;;;24.60;91.20;;;;;;4957749;28;20042;-68
2023/05/29 11:00:48;;;;;;;4.15;2.88;;;24.60;92.40;;;;;;4966821;28;20049;-68
2023/05/29 11:03:25;;;;;;;10.45;3.20;;;24.80;94.70;;;;;;4974663;28;20049;-67
2023/05/29 11:06:01;;;;;;;4.70;3.08;;;24.90;90.80;;;;;;4964051;28;20064;-68
2023/05/29 11:08:51;;;;;;;3.38;2.72;;;25.00;90.60;;;;;;4970085;28;20161;-68
2023/05/29 11:11:31;;;;;;;5.05;2.78;;;25.00;90.60;;;;;;4967278;28;20045;-74
2023/05/29 11:14:00;;;;;;;4.85;3.10;;;25.00;87.20;;;;;;4973617;28;20320;-74
2023/05/29 11:16:29;;;;;;;4.13;2.95;;;24.90;89.80;;;;;;4960361;28;20085;-77
2023/05/29 11:18:56;;;;;;;4.50;3.08;;;24.90;91.60;;;;;;4972556;28;20125;-74
2023/05/29 11:21:55;;;;;;;4.97;3.00;;;25.00;91.90;;;;;;4966600;28;20050;-75
2023/05/29 11:24:29;;;;;;;6.15;2.83;;;25.10;91.20;;;;;;4971997;28;20047;-75
2023/05/29 11:26:57;;;;;;;4.82;2.88;;;25.30;90.90;;;;;;4972125;28;20046;-73
2023/05/29 11:29:24;;;;;;;3.92;2.80;;;25.30;88.40;;;;;;4953547;28;20043;-74
2023/05/29 11:32:02;;;;;;;3.47;2.88;;;25.30;89.10;;;;;;4973801;28;20046;-74
2023/05/29 11:34:29;;;;;;;4.72;2.63;;;25.30;85.40;;;;;;4961325;28;20105;-69
2023/05/29 11:37:04;;;;;;;7.40;2.70;;;25.20;84.70;;;;;;4953554;28;20415;-75
2023/05/29 11:39:33;;;;;;;2.78;2.45;;;25.20;84.70;;;;;;4974745;28;20476;-74
2023/05/29 11:42:00;;;;;;;4.07;2.70;;;25.10;81.90;;;;;;4975676;28;20137;-74
2023/05/29 11:44:26;;;;;;;2.92;2.55;;;25.10;83.00;;;;;;4976244;28;20508;-73
2023/05/29 11:47:02;;;;;;;4.60;3.15;;;25.20;83.30;;;;;;4977225;28;20050;-74
2023/05/29 11:49:29;;;;;;;3.65;2.88;;;25.20;84.00;;;;;;4967748;28;20049;-75
2023/05/29 11:52:14;;;;;;;3.95;2.80;;;25.30;84.40;;;;;;4972702;28;20581;-74
2023/05/29 11:54:46;;;;;;;3.22;2.92;;;25.40;80.40;;;;;;4972523;28;20092;-75
2023/05/29 11:57:18;;;;;;;3.40;2.45;;;25.40;77.50;;;;;;4974562;28;20055;-75
2023/05/29 11:59:44;;;;;;;3.75;3.25;;;25.40;75.00;;;;;;4973769;28;20140;-74
2023/05/29 12:02:10;;;;;;;4.22;3.30;;;25.40;69.20;;;;;;4971654;28;20505;-75
2023/05/29 12:04:35;;;;;;;3.33;3.03;;;25.30;67.10;;;;;;4966574;28;20038;-75
2023/05/29 12:07:01;;;;;;;4.60;3.42;;;25.30;64.10;;;;;;4960856;28;20061;-64
2023/05/29 12:09:28;;;;;;;3.67;2.92;;;25.30;65.10;;;;;;4966375;28;20340;-65
2023/05/29 12:12:04;;;;;;;4.30;3.22;;;25.30;71.10;;;;;;4966015;28;20051;-64
2023/05/29 12:14:30;;;;;;;5.75;3.10;;;25.40;67.40;;;;;;4963125;28;20045;-65
2023/05/29 12:16:56;;;;;;;3.30;3.00;;;25.50;67.40;;;;;;4962933;28;20523;-65
2023/05/29 12:19:22;;;;;;;3.92;3.20;;;25.50;63.10;;;;;;4954165;28;20050;-65
2023/05/29 12:21:47;;;;;;;4.43;3.35;;;25.50;67.40;;;;;;4970487;28;20077;-65
2023/05/29 12:24:13;;;;;;;5.10;3.45;;;25.60;66.30;;;;;;4964136;28;20049;-65
2023/05/29 12:26:39;;;;;;;6.00;3.65;;;25.50;66.70;;;;;;4950114;28;20046;-65
2023/05/29 12:29:05;;;;;;;4.00;3.00;;;25.60;62.50;;;;;;4969130;28;20034;-64
2023/05/29 12:31:32;;;;;;;4.20;3.00;;;25.50;62.00;;;;;;4973688;28;20693;-64
2023/05/29 12:34:02;;;;;;;4.63;3.50;;;25.40;62.70;;;;;;4976626;28;20041;-65
2023/05/29 12:36:28;;;;;;;4.03;3.08;;;25.30;60.90;;;;;;4975742;28;20329;-65
2023/05/29 12:38:54;;;;;;;4.93;3.40;;;25.10;59.10;;;;;;4977262;28;20046;-65
2023/05/29 12:41:33;;;;;;;3.45;3.05;;;25.00;61.00;;;;;;4980983;28;20454;-65
2023/05/29 12:44:02;;;;;;;6.28;3.40;;;25.10;60.20;;;;;;4979327;28;20117;-65
2023/05/29 12:46:27;;;;;;;3.50;3.20;;;25.10;61.10;;;;;;4975612;28;20105;-74
2023/05/29 12:48:56;;;;;;;3.80;3.30;;;25.20;64.90;;;;;;4980372;28;20454;-73
2023/05/29 12:51:27;;;;;;;6.35;3.75;;;25.30;65.60;;;;;;4952592;28;20027;-74